sensor_id;sensor_type;location;lat;lon;timestamp;P1;durP1;ratioP1;P2;durP2;ratioP2
37431;SDS011;23292;51.300;6.252;2024-03-02T00:01:15;4.85;;;1.02;;
37431;SDS011;23292;51.300;6.252;2024-03-02T00:03:42;5.65;;;1.20;;
37431;SDS011;23292;51.300;6.252;2024-03-02T00:06:10;5.15;;;1.10;;
37431;SDS011;23292;51.300;6.252;2024-03-02T00:08:37;3.15;;;1.20;;
37431;SDS011;23292;51.300;6.252;2024-03-02T00:11:03;3.60;;;1.10;;
37431;SDS011;23292;51.300;6.252;2024-03-02T00:13:30;6.53;;;1.13;;
37431;SDS011;23292;51.300;6.252;2024-03-02T00:15:58;4.78;;;1.40;;
37431;SDS011;23292;51.300;6.252;2024-03-02T00:18:26;9.05;;;1.20;;
37431;SDS011;23292;51.300;6.252;2024-03-02T00:20:57;6.85;;;1.25;;
37431;SDS011;23292;51.300;6.252;2024-03-02T00:23:27;4.13;;;1.20;;
37431;SDS011;23292;51.300;6.252;2024-03-02T00:25:56;5.78;;;1.10;;
37431;SDS011;23292;51.300;6.252;2024-03-02T00:28:24;4.05;;;1.10;;
37431;SDS011;23292;51.300;6.252;2024-03-02T00:33:36;5.15;;;1.40;;
37431;SDS011;23292;51.300;6.252;2024-03-02T00:36:11;6.13;;;1.20;;
37431;SDS011;23292;51.300;6.252;2024-03-02T00:38:46;3.13;;;0.90;;
37431;SDS011;23292;51.300;6.252;2024-03-02T00:41:16;8.27;;;1.35;;
37431;SDS011;23292;51.300;6.252;2024-03-02T00:43:58;10.02;;;1.50;;
37431;SDS011;23292;51.300;6.252;2024-03-02T00:46:33;4.22;;;1.30;;
37431;SDS011;23292;51.300;6.252;2024-03-02T00:51:47;5.30;;;1.50;;
37431;SDS011;23292;51.300;6.252;2024-03-02T00:56:46;7.70;;;1.55;;
37431;SDS011;23292;51.300;6.252;2024-03-02T00:59:14;6.25;;;1.52;;
37431;SDS011;23292;51.300;6.252;2024-03-02T01:01:40;5.57;;;1.02;;
37431;SDS011;23292;51.300;6.252;2024-03-02T01:04:08;4.38;;;1.00;;
37431;SDS011;23292;51.300;6.252;2024-03-02T01:06:35;5.10;;;1.42;;
37431;SDS011;23292;51.300;6.252;2024-03-02T01:09:02;4.65;;;1.38;;
37431;SDS011;23292;51.300;6.252;2024-03-02T01:11:29;5.07;;;1.33;;
37431;SDS011;23292;51.300;6.252;2024-03-02T01:13:56;3.53;;;1.20;;
37431;SDS011;23292;51.300;6.252;2024-03-02T01:16:23;5.82;;;1.35;;
37431;SDS011;23292;51.300;6.252;2024-03-02T01:18:50;2.25;;;0.95;;
37431;SDS011;23292;51.300;6.252;2024-03-02T01:21:16;5.00;;;1.50;;
37431;SDS011;23292;51.300;6.252;2024-03-02T01:23:43;5.85;;;1.38;;
37431;SDS011;23292;51.300;6.252;2024-03-02T01:26:10;5.93;;;1.23;;
37431;SDS011;23292;51.300;6.252;2024-03-02T01:28:37;3.92;;;1.00;;
37431;SDS011;23292;51.300;6.252;2024-03-02T01:31:04;4.65;;;1.35;;
37431;SDS011;23292;51.300;6.252;2024-03-02T01:33:31;5.65;;;1.48;;
37431;SDS011;23292;51.300;6.252;2024-03-02T01:35:58;3.95;;;1.17;;
37431;SDS011;23292;51.300;6.252;2024-03-02T01:38:24;6.00;;;1.60;;
37431;SDS011;23292;51.300;6.252;2024-03-02T01:40:51;2.63;;;1.20;;
37431;SDS011;23292;51.300;6.252;2024-03-02T01:43:18;5.35;;;1.58;;
37431;SDS011;23292;51.300;6.252;2024-03-02T01:45:45;3.08;;;1.10;;
37431;SDS011;23292;51.300;6.252;2024-03-02T01:48:11;3.33;;;1.00;;
37431;SDS011;23292;51.300;6.252;2024-03-02T01:50:38;5.07;;;1.23;;
37431;SDS011;23292;51.300;6.252;2024-03-02T01:53:05;3.38;;;1.08;;
37431;SDS011;23292;51.300;6.252;2024-03-02T01:55:33;2.95;;;1.00;;
37431;SDS011;23292;51.300;6.252;2024-03-02T01:58:00;4.80;;;1.30;;
37431;SDS011;23292;51.300;6.252;2024-03-02T02:00:27;6.63;;;1.30;;
37431;SDS011;23292;51.300;6.252;2024-03-02T02:02:55;6.00;;;1.42;;
37431;SDS011;23292;51.300;6.252;2024-03-02T02:05:22;5.50;;;1.30;;
37431;SDS011;23292;51.300;6.252;2024-03-02T02:07:49;3.72;;;0.88;;
37431;SDS011;23292;51.300;6.252;2024-03-02T02:10:16;4.72;;;1.02;;
37431;SDS011;23292;51.300;6.252;2024-03-02T02:12:43;5.47;;;0.90;;
37431;SDS011;23292;51.300;6.252;2024-03-02T02:15:23;2.97;;;0.73;;
37431;SDS011;23292;51.300;6.252;2024-03-02T02:17:51;5.03;;;0.80;;
37431;SDS011;23292;51.300;6.252;2024-03-02T02:20:18;5.68;;;0.88;;
37431;SDS011;23292;51.300;6.252;2024-03-02T02:23:04;1.95;;;0.68;;
37431;SDS011;23292;51.300;6.252;2024-03-02T02:25:36;3.47;;;0.90;;
37431;SDS011;23292;51.300;6.252;2024-03-02T02:28:02;3.25;;;1.58;;
37431;SDS011;23292;51.300;6.252;2024-03-02T02:30:31;4.05;;;1.00;;
37431;SDS011;23292;51.300;6.252;2024-03-02T02:32:58;6.38;;;0.95;;
37431;SDS011;23292;51.300;6.252;2024-03-02T02:35:25;3.22;;;0.77;;
37431;SDS011;23292;51.300;6.252;2024-03-02T02:37:53;2.65;;;0.80;;
37431;SDS011;23292;51.300;6.252;2024-03-02T02:40:21;1.20;;;0.40;;
37431;SDS011;23292;51.300;6.252;2024-03-02T02:42:48;1.00;;;0.40;;
37431;SDS011;23292;51.300;6.252;2024-03-02T02:45:16;2.13;;;0.52;;
37431;SDS011;23292;51.300;6.252;2024-03-02T02:47:43;1.00;;;0.50;;
37431;SDS011;23292;51.300;6.252;2024-03-02T02:50:11;2.60;;;0.47;;
37431;SDS011;23292;51.300;6.252;2024-03-02T02:52:39;1.20;;;0.40;;
37431;SDS011;23292;51.300;6.252;2024-03-02T02:55:11;3.13;;;0.32;;
37431;SDS011;23292;51.300;6.252;2024-03-02T02:57:40;2.10;;;0.50;;
37431;SDS011;23292;51.300;6.252;2024-03-02T03:00:10;0.57;;;0.40;;
37431;SDS011;23292;51.300;6.252;2024-03-02T03:02:43;4.38;;;0.63;;
37431;SDS011;23292;51.300;6.252;2024-03-02T03:05:11;1.85;;;0.45;;
37431;SDS011;23292;51.300;6.252;2024-03-02T03:07:41;1.77;;;0.47;;
37431;SDS011;23292;51.300;6.252;2024-03-02T03:10:08;2.88;;;0.40;;
37431;SDS011;23292;51.300;6.252;2024-03-02T03:12:35;1.85;;;0.15;;
37431;SDS011;23292;51.300;6.252;2024-03-02T03:15:03;2.15;;;0.70;;
37431;SDS011;23292;51.300;6.252;2024-03-02T03:17:31;2.92;;;0.40;;
37431;SDS011;23292;51.300;6.252;2024-03-02T03:19:58;1.23;;;0.20;;
37431;SDS011;23292;51.300;6.252;2024-03-02T03:22:25;1.10;;;0.50;;
37431;SDS011;23292;51.300;6.252;2024-03-02T03:24:51;2.83;;;1.10;;
37431;SDS011;23292;51.300;6.252;2024-03-02T03:27:18;0.73;;;0.13;;
37431;SDS011;23292;51.300;6.252;2024-03-02T03:29:46;1.33;;;0.30;;
37431;SDS011;23292;51.300;6.252;2024-03-02T03:32:13;2.13;;;0.20;;
37431;SDS011;23292;51.300;6.252;2024-03-02T03:34:40;1.30;;;0.32;;
37431;SDS011;23292;51.300;6.252;2024-03-02T03:37:07;1.17;;;0.30;;
37431;SDS011;23292;51.300;6.252;2024-03-02T03:39:34;4.88;;;0.45;;
37431;SDS011;23292;51.300;6.252;2024-03-02T03:42:04;2.60;;;0.30;;
37431;SDS011;23292;51.300;6.252;2024-03-02T03:44:31;2.35;;;0.50;;
37431;SDS011;23292;51.300;6.252;2024-03-02T03:46:58;1.35;;;0.40;;
37431;SDS011;23292;51.300;6.252;2024-03-02T03:49:24;0.73;;;0.30;;
37431;SDS011;23292;51.300;6.252;2024-03-02T03:51:52;0.85;;;0.32;;
37431;SDS011;23292;51.300;6.252;2024-03-02T03:54:19;1.48;;;0.40;;
37431;SDS011;23292;51.300;6.252;2024-03-02T03:56:46;2.42;;;0.40;;
37431;SDS011;23292;51.300;6.252;2024-03-02T03:59:12;2.72;;;0.40;;
37431;SDS011;23292;51.300;6.252;2024-03-02T04:01:39;2.55;;;0.50;;
37431;SDS011;23292;51.300;6.252;2024-03-02T04:04:06;1.40;;;0.40;;
37431;SDS011;23292;51.300;6.252;2024-03-02T04:06:33;4.60;;;0.90;;
37431;SDS011;23292;51.300;6.252;2024-03-02T04:09:00;1.55;;;0.50;;
37431;SDS011;23292;51.300;6.252;2024-03-02T04:11:27;3.47;;;0.80;;
37431;SDS011;23292;51.300;6.252;2024-03-02T04:13:54;3.17;;;0.80;;
37431;SDS011;23292;51.300;6.252;2024-03-02T04:16:24;1.27;;;0.45;;
37431;SDS011;23292;51.300;6.252;2024-03-02T04:18:50;2.10;;;0.43;;
37431;SDS011;23292;51.300;6.252;2024-03-02T04:21:17;2.97;;;0.77;;
37431;SDS011;23292;51.300;6.252;2024-03-02T04:23:44;1.85;;;0.45;;
37431;SDS011;23292;51.300;6.252;2024-03-02T04:26:11;3.78;;;0.70;;
37431;SDS011;23292;51.300;6.252;2024-03-02T04:28:37;1.85;;;0.73;;
37431;SDS011;23292;51.300;6.252;2024-03-02T04:31:04;2.80;;;0.80;;
37431;SDS011;23292;51.300;6.252;2024-03-02T04:33:31;2.08;;;0.63;;
37431;SDS011;23292;51.300;6.252;2024-03-02T04:35:58;3.42;;;0.95;;
37431;SDS011;23292;51.300;6.252;2024-03-02T04:38:24;2.95;;;1.20;;
37431;SDS011;23292;51.300;6.252;2024-03-02T04:40:51;3.13;;;0.60;;
37431;SDS011;23292;51.300;6.252;2024-03-02T04:43:18;3.00;;;0.80;;
37431;SDS011;23292;51.300;6.252;2024-03-02T04:45:45;1.90;;;0.52;;
37431;SDS011;23292;51.300;6.252;2024-03-02T04:48:12;3.35;;;1.00;;
37431;SDS011;23292;51.300;6.252;2024-03-02T04:50:40;2.15;;;0.85;;
37431;SDS011;23292;51.300;6.252;2024-03-02T04:53:07;2.60;;;0.70;;
37431;SDS011;23292;51.300;6.252;2024-03-02T04:55:34;2.00;;;0.50;;
37431;SDS011;23292;51.300;6.252;2024-03-02T04:58:01;1.80;;;0.70;;
37431;SDS011;23292;51.300;6.252;2024-03-02T05:00:28;5.50;;;1.40;;
37431;SDS011;23292;51.300;6.252;2024-03-02T05:02:55;3.17;;;0.82;;
37431;SDS011;23292;51.300;6.252;2024-03-02T05:05:21;2.08;;;0.70;;
37431;SDS011;23292;51.300;6.252;2024-03-02T05:07:48;2.58;;;0.77;;
37431;SDS011;23292;51.300;6.252;2024-03-02T05:10:15;1.75;;;0.70;;
37431;SDS011;23292;51.300;6.252;2024-03-02T05:12:42;1.35;;;0.77;;
37431;SDS011;23292;51.300;6.252;2024-03-02T05:15:13;5.20;;;1.98;;
37431;SDS011;23292;51.300;6.252;2024-03-02T05:17:41;3.20;;;0.80;;
37431;SDS011;23292;51.300;6.252;2024-03-02T05:20:11;2.05;;;0.90;;
37431;SDS011;23292;51.300;6.252;2024-03-02T05:22:38;1.65;;;0.80;;
37431;SDS011;23292;51.300;6.252;2024-03-02T05:25:06;1.83;;;0.70;;
37431;SDS011;23292;51.300;6.252;2024-03-02T05:27:33;2.70;;;0.75;;
37431;SDS011;23292;51.300;6.252;2024-03-02T05:30:00;1.65;;;0.60;;
37431;SDS011;23292;51.300;6.252;2024-03-02T05:32:27;2.38;;;0.88;;
37431;SDS011;23292;51.300;6.252;2024-03-02T05:34:54;3.38;;;1.00;;
37431;SDS011;23292;51.300;6.252;2024-03-02T05:37:21;2.33;;;0.80;;
37431;SDS011;23292;51.300;6.252;2024-03-02T05:39:48;2.60;;;0.93;;
37431;SDS011;23292;51.300;6.252;2024-03-02T05:42:15;3.55;;;1.02;;
37431;SDS011;23292;51.300;6.252;2024-03-02T05:44:43;4.47;;;0.73;;
37431;SDS011;23292;51.300;6.252;2024-03-02T05:47:10;3.50;;;0.90;;
37431;SDS011;23292;51.300;6.252;2024-03-02T05:49:37;3.03;;;0.95;;
37431;SDS011;23292;51.300;6.252;2024-03-02T05:52:04;1.77;;;0.70;;
37431;SDS011;23292;51.300;6.252;2024-03-02T05:54:31;5.53;;;1.08;;
37431;SDS011;23292;51.300;6.252;2024-03-02T05:56:57;1.83;;;0.60;;
37431;SDS011;23292;51.300;6.252;2024-03-02T05:59:43;6.22;;;2.25;;
37431;SDS011;23292;51.300;6.252;2024-03-02T06:02:12;2.58;;;0.68;;
37431;SDS011;23292;51.300;6.252;2024-03-02T06:04:39;1.85;;;0.60;;
37431;SDS011;23292;51.300;6.252;2024-03-02T06:07:06;2.63;;;0.77;;
37431;SDS011;23292;51.300;6.252;2024-03-02T06:09:33;2.78;;;0.73;;
37431;SDS011;23292;51.300;6.252;2024-03-02T06:12:00;1.60;;;0.73;;
37431;SDS011;23292;51.300;6.252;2024-03-02T06:14:26;2.85;;;0.70;;
37431;SDS011;23292;51.300;6.252;2024-03-02T06:16:53;5.90;;;3.03;;
37431;SDS011;23292;51.300;6.252;2024-03-02T06:19:20;6.50;;;3.42;;
37431;SDS011;23292;51.300;6.252;2024-03-02T06:21:47;10.07;;;4.78;;
37431;SDS011;23292;51.300;6.252;2024-03-02T06:24:14;4.85;;;1.90;;
37431;SDS011;23292;51.300;6.252;2024-03-02T06:26:40;6.13;;;2.50;;
37431;SDS011;23292;51.300;6.252;2024-03-02T06:29:07;3.83;;;1.40;;
37431;SDS011;23292;51.300;6.252;2024-03-02T06:31:34;4.63;;;1.90;;
37431;SDS011;23292;51.300;6.252;2024-03-02T06:34:01;10.88;;;3.75;;
37431;SDS011;23292;51.300;6.252;2024-03-02T06:36:30;8.38;;;2.20;;
37431;SDS011;23292;51.300;6.252;2024-03-02T06:38:56;10.02;;;4.13;;
37431;SDS011;23292;51.300;6.252;2024-03-02T06:41:23;17.50;;;7.45;;
37431;SDS011;23292;51.300;6.252;2024-03-02T06:43:50;9.23;;;4.55;;
37431;SDS011;23292;51.300;6.252;2024-03-02T06:46:20;5.85;;;2.58;;
37431;SDS011;23292;51.300;6.252;2024-03-02T06:48:47;4.38;;;1.90;;
37431;SDS011;23292;51.300;6.252;2024-03-02T06:51:14;4.47;;;1.73;;
37431;SDS011;23292;51.300;6.252;2024-03-02T06:53:42;5.82;;;2.55;;
37431;SDS011;23292;51.300;6.252;2024-03-02T06:56:08;6.13;;;3.10;;
37431;SDS011;23292;51.300;6.252;2024-03-02T06:58:35;4.72;;;1.60;;
37431;SDS011;23292;51.300;6.252;2024-03-02T07:01:02;4.53;;;1.60;;
37431;SDS011;23292;51.300;6.252;2024-03-02T07:03:29;3.83;;;1.23;;
37431;SDS011;23292;51.300;6.252;2024-03-02T07:05:56;3.65;;;1.15;;
37431;SDS011;23292;51.300;6.252;2024-03-02T07:08:23;2.28;;;0.90;;
37431;SDS011;23292;51.300;6.252;2024-03-02T07:10:50;2.22;;;0.80;;
37431;SDS011;23292;51.300;6.252;2024-03-02T07:13:17;4.03;;;1.08;;
37431;SDS011;23292;51.300;6.252;2024-03-02T07:15:43;2.33;;;0.82;;
37431;SDS011;23292;51.300;6.252;2024-03-02T07:18:36;2.38;;;0.88;;
37431;SDS011;23292;51.300;6.252;2024-03-02T07:21:07;3.60;;;1.23;;
37431;SDS011;23292;51.300;6.252;2024-03-02T07:23:34;2.78;;;0.95;;
37431;SDS011;23292;51.300;6.252;2024-03-02T07:26:01;2.53;;;1.02;;
37431;SDS011;23292;51.300;6.252;2024-03-02T07:28:32;3.05;;;1.13;;
37431;SDS011;23292;51.300;6.252;2024-03-02T07:31:03;4.70;;;1.30;;
37431;SDS011;23292;51.300;6.252;2024-03-02T07:33:31;5.88;;;1.30;;
37431;SDS011;23292;51.300;6.252;2024-03-02T07:35:58;4.15;;;1.10;;
37431;SDS011;23292;51.300;6.252;2024-03-02T07:38:30;3.05;;;1.10;;
37431;SDS011;23292;51.300;6.252;2024-03-02T07:40:58;5.97;;;1.63;;
37431;SDS011;23292;51.300;6.252;2024-03-02T07:43:24;4.45;;;1.20;;
37431;SDS011;23292;51.300;6.252;2024-03-02T07:45:51;2.83;;;1.10;;
37431;SDS011;23292;51.300;6.252;2024-03-02T07:48:19;3.72;;;0.90;;
37431;SDS011;23292;51.300;6.252;2024-03-02T07:50:46;2.78;;;0.80;;
37431;SDS011;23292;51.300;6.252;2024-03-02T07:53:12;3.65;;;1.00;;
37431;SDS011;23292;51.300;6.252;2024-03-02T07:55:40;4.55;;;0.93;;
37431;SDS011;23292;51.300;6.252;2024-03-02T07:58:07;4.80;;;0.90;;
37431;SDS011;23292;51.300;6.252;2024-03-02T08:00:34;3.70;;;1.02;;
37431;SDS011;23292;51.300;6.252;2024-03-02T08:03:01;2.40;;;0.82;;
37431;SDS011;23292;51.300;6.252;2024-03-02T08:05:28;2.78;;;0.80;;
37431;SDS011;23292;51.300;6.252;2024-03-02T08:07:55;3.33;;;1.00;;
37431;SDS011;23292;51.300;6.252;2024-03-02T08:10:22;3.03;;;0.75;;
37431;SDS011;23292;51.300;6.252;2024-03-02T08:12:49;2.30;;;0.60;;
37431;SDS011;23292;51.300;6.252;2024-03-02T08:15:15;2.83;;;0.60;;
37431;SDS011;23292;51.300;6.252;2024-03-02T08:17:42;3.20;;;0.60;;
37431;SDS011;23292;51.300;6.252;2024-03-02T08:20:15;1.98;;;0.57;;
37431;SDS011;23292;51.300;6.252;2024-03-02T08:22:43;2.28;;;0.45;;
37431;SDS011;23292;51.300;6.252;2024-03-02T08:25:10;3.58;;;0.60;;
37431;SDS011;23292;51.300;6.252;2024-03-02T08:27:37;2.72;;;0.63;;
37431;SDS011;23292;51.300;6.252;2024-03-02T08:30:06;3.47;;;0.60;;
37431;SDS011;23292;51.300;6.252;2024-03-02T08:32:34;1.42;;;0.50;;
37431;SDS011;23292;51.300;6.252;2024-03-02T08:35:01;4.85;;;0.70;;
37431;SDS011;23292;51.300;6.252;2024-03-02T08:37:28;2.05;;;0.60;;
37431;SDS011;23292;51.300;6.252;2024-03-02T08:39:55;3.10;;;0.75;;
37431;SDS011;23292;51.300;6.252;2024-03-02T08:42:22;2.70;;;0.70;;
37431;SDS011;23292;51.300;6.252;2024-03-02T08:44:49;1.65;;;0.47;;
37431;SDS011;23292;51.300;6.252;2024-03-02T08:47:16;2.90;;;0.75;;
37431;SDS011;23292;51.300;6.252;2024-03-02T08:49:43;3.25;;;0.90;;
37431;SDS011;23292;51.300;6.252;2024-03-02T08:52:10;2.55;;;0.90;;
37431;SDS011;23292;51.300;6.252;2024-03-02T08:54:36;4.00;;;0.70;;
37431;SDS011;23292;51.300;6.252;2024-03-02T08:57:04;2.47;;;0.68;;
37431;SDS011;23292;51.300;6.252;2024-03-02T08:59:31;1.95;;;0.60;;
37431;SDS011;23292;51.300;6.252;2024-03-02T09:01:58;2.78;;;0.43;;
37431;SDS011;23292;51.300;6.252;2024-03-02T09:04:25;1.23;;;0.40;;
37431;SDS011;23292;51.300;6.252;2024-03-02T09:06:55;3.72;;;0.93;;
37431;SDS011;23292;51.300;6.252;2024-03-02T09:09:22;2.80;;;0.73;;
37431;SDS011;23292;51.300;6.252;2024-03-02T09:11:49;2.42;;;0.47;;
37431;SDS011;23292;51.300;6.252;2024-03-02T09:14:15;1.95;;;0.70;;
37431;SDS011;23292;51.300;6.252;2024-03-02T09:16:42;3.65;;;0.70;;
37431;SDS011;23292;51.300;6.252;2024-03-02T09:19:09;3.28;;;0.60;;
37431;SDS011;23292;51.300;6.252;2024-03-02T09:21:36;4.50;;;0.90;;
37431;SDS011;23292;51.300;6.252;2024-03-02T09:24:03;3.28;;;0.82;;
37431;SDS011;23292;51.300;6.252;2024-03-02T09:26:30;5.45;;;1.17;;
37431;SDS011;23292;51.300;6.252;2024-03-02T09:28:57;2.75;;;0.75;;
37431;SDS011;23292;51.300;6.252;2024-03-02T09:31:24;2.85;;;0.90;;
37431;SDS011;23292;51.300;6.252;2024-03-02T09:33:51;5.07;;;0.88;;
37431;SDS011;23292;51.300;6.252;2024-03-02T09:36:18;5.20;;;1.20;;
37431;SDS011;23292;51.300;6.252;2024-03-02T09:38:46;3.95;;;0.98;;
37431;SDS011;23292;51.300;6.252;2024-03-02T09:41:13;3.55;;;1.10;;
37431;SDS011;23292;51.300;6.252;2024-03-02T09:43:41;3.30;;;0.80;;
37431;SDS011;23292;51.300;6.252;2024-03-02T09:46:08;3.75;;;1.00;;
37431;SDS011;23292;51.300;6.252;2024-03-02T09:48:36;3.17;;;1.00;;
37431;SDS011;23292;51.300;6.252;2024-03-02T09:51:04;2.10;;;0.80;;
37431;SDS011;23292;51.300;6.252;2024-03-02T09:53:31;4.90;;;1.10;;
37431;SDS011;23292;51.300;6.252;2024-03-02T09:56:00;4.35;;;1.25;;
37431;SDS011;23292;51.300;6.252;2024-03-02T09:58:26;2.10;;;0.88;;
37431;SDS011;23292;51.300;6.252;2024-03-02T10:00:54;3.40;;;1.10;;
37431;SDS011;23292;51.300;6.252;2024-03-02T10:03:20;5.85;;;1.58;;
37431;SDS011;23292;51.300;6.252;2024-03-02T10:05:51;5.00;;;1.17;;
37431;SDS011;23292;51.300;6.252;2024-03-02T10:08:18;4.32;;;1.10;;
37431;SDS011;23292;51.300;6.252;2024-03-02T10:10:45;5.10;;;1.02;;
37431;SDS011;23292;51.300;6.252;2024-03-02T10:13:12;3.10;;;1.00;;
37431;SDS011;23292;51.300;6.252;2024-03-02T10:15:40;4.57;;;1.27;;
37431;SDS011;23292;51.300;6.252;2024-03-02T10:18:11;5.88;;;1.38;;
37431;SDS011;23292;51.300;6.252;2024-03-02T10:20:39;4.35;;;0.85;;
37431;SDS011;23292;51.300;6.252;2024-03-02T10:23:10;4.72;;;1.00;;
37431;SDS011;23292;51.300;6.252;2024-03-02T10:25:38;3.70;;;0.85;;
37431;SDS011;23292;51.300;6.252;2024-03-02T10:28:20;3.05;;;0.98;;
37431;SDS011;23292;51.300;6.252;2024-03-02T10:30:47;6.07;;;1.10;;
37431;SDS011;23292;51.300;6.252;2024-03-02T10:33:16;3.92;;;1.00;;
37431;SDS011;23292;51.300;6.252;2024-03-02T10:35:43;4.13;;;0.90;;
37431;SDS011;23292;51.300;6.252;2024-03-02T10:38:11;4.95;;;1.42;;
37431;SDS011;23292;51.300;6.252;2024-03-02T10:40:38;4.32;;;0.88;;
37431;SDS011;23292;51.300;6.252;2024-03-02T10:43:05;2.75;;;0.90;;
37431;SDS011;23292;51.300;6.252;2024-03-02T10:45:33;4.00;;;0.90;;
37431;SDS011;23292;51.300;6.252;2024-03-02T10:48:01;3.55;;;1.23;;
37431;SDS011;23292;51.300;6.252;2024-03-02T10:50:29;3.30;;;0.85;;
37431;SDS011;23292;51.300;6.252;2024-03-02T10:52:56;4.47;;;1.05;;
37431;SDS011;23292;51.300;6.252;2024-03-02T10:55:23;5.20;;;1.13;;
37431;SDS011;23292;51.300;6.252;2024-03-02T10:57:51;6.07;;;1.05;;
37431;SDS011;23292;51.300;6.252;2024-03-02T11:00:24;3.22;;;1.10;;
37431;SDS011;23292;51.300;6.252;2024-03-02T11:02:57;4.03;;;1.30;;
37431;SDS011;23292;51.300;6.252;2024-03-02T11:05:33;4.00;;;0.90;;
37431;SDS011;23292;51.300;6.252;2024-03-02T11:08:05;4.78;;;0.80;;
37431;SDS011;23292;51.300;6.252;2024-03-02T11:10:57;2.50;;;0.80;;
37431;SDS011;23292;51.300;6.252;2024-03-02T11:13:27;2.88;;;0.70;;
37431;SDS011;23292;51.300;6.252;2024-03-02T11:16:05;3.72;;;0.95;;
37431;SDS011;23292;51.300;6.252;2024-03-02T11:18:36;5.82;;;1.23;;
37431;SDS011;23292;51.300;6.252;2024-03-02T11:21:04;4.70;;;0.75;;
37431;SDS011;23292;51.300;6.252;2024-03-02T11:23:32;3.42;;;1.00;;
37431;SDS011;23292;51.300;6.252;2024-03-02T11:28:46;3.15;;;0.95;;
37431;SDS011;23292;51.300;6.252;2024-03-02T11:31:13;3.67;;;0.85;;
37431;SDS011;23292;51.300;6.252;2024-03-02T11:33:40;5.07;;;1.25;;
37431;SDS011;23292;51.300;6.252;2024-03-02T11:36:07;6.38;;;1.15;;
37431;SDS011;23292;51.300;6.252;2024-03-02T11:38:37;6.47;;;1.20;;
37431;SDS011;23292;51.300;6.252;2024-03-02T11:41:06;2.50;;;0.82;;
37431;SDS011;23292;51.300;6.252;2024-03-02T11:43:38;7.10;;;0.88;;
37431;SDS011;23292;51.300;6.252;2024-03-02T11:46:09;2.67;;;0.80;;
37431;SDS011;23292;51.300;6.252;2024-03-02T11:48:38;5.28;;;0.77;;
37431;SDS011;23292;51.300;6.252;2024-03-02T11:51:06;4.18;;;1.00;;
37431;SDS011;23292;51.300;6.252;2024-03-02T11:53:32;7.07;;;1.13;;
37431;SDS011;23292;51.300;6.252;2024-03-02T11:56:02;3.00;;;0.75;;
37431;SDS011;23292;51.300;6.252;2024-03-02T11:58:29;2.92;;;0.90;;
37431;SDS011;23292;51.300;6.252;2024-03-02T12:00:56;4.60;;;1.15;;
37431;SDS011;23292;51.300;6.252;2024-03-02T12:03:24;5.65;;;1.00;;
37431;SDS011;23292;51.300;6.252;2024-03-02T12:05:53;2.35;;;0.80;;
37431;SDS011;23292;51.300;6.252;2024-03-02T12:08:20;5.53;;;0.80;;
37431;SDS011;23292;51.300;6.252;2024-03-02T12:11:06;5.13;;;0.93;;
37431;SDS011;23292;51.300;6.252;2024-03-02T12:13:33;4.25;;;1.02;;
37431;SDS011;23292;51.300;6.252;2024-03-02T12:16:00;6.72;;;1.02;;
37431;SDS011;23292;51.300;6.252;2024-03-02T12:18:27;3.08;;;0.80;;
37431;SDS011;23292;51.300;6.252;2024-03-02T12:20:54;5.85;;;1.00;;
37431;SDS011;23292;51.300;6.252;2024-03-02T12:23:25;3.30;;;0.60;;
37431;SDS011;23292;51.300;6.252;2024-03-02T12:25:53;6.65;;;0.95;;
37431;SDS011;23292;51.300;6.252;2024-03-02T12:28:20;3.72;;;0.95;;
37431;SDS011;23292;51.300;6.252;2024-03-02T12:30:47;3.40;;;0.95;;
37431;SDS011;23292;51.300;6.252;2024-03-02T12:33:14;3.50;;;1.00;;
37431;SDS011;23292;51.300;6.252;2024-03-02T12:35:42;6.28;;;1.00;;
37431;SDS011;23292;51.300;6.252;2024-03-02T12:38:09;5.57;;;1.00;;
37431;SDS011;23292;51.300;6.252;2024-03-02T12:40:37;4.07;;;1.02;;
37431;SDS011;23292;51.300;6.252;2024-03-02T12:43:04;5.10;;;1.20;;
37431;SDS011;23292;51.300;6.252;2024-03-02T12:45:32;3.75;;;0.90;;
37431;SDS011;23292;51.300;6.252;2024-03-02T12:48:00;5.25;;;1.00;;
37431;SDS011;23292;51.300;6.252;2024-03-02T12:50:28;4.95;;;0.82;;
37431;SDS011;23292;51.300;6.252;2024-03-02T12:52:55;4.55;;;1.00;;
37431;SDS011;23292;51.300;6.252;2024-03-02T12:55:22;2.63;;;0.88;;
37431;SDS011;23292;51.300;6.252;2024-03-02T12:57:51;5.28;;;1.00;;
37431;SDS011;23292;51.300;6.252;2024-03-02T13:00:19;5.13;;;1.00;;
37431;SDS011;23292;51.300;6.252;2024-03-02T13:02:48;6.13;;;0.98;;
37431;SDS011;23292;51.300;6.252;2024-03-02T13:05:16;3.78;;;1.00;;
37431;SDS011;23292;51.300;6.252;2024-03-02T13:07:43;9.30;;;1.98;;
37431;SDS011;23292;51.300;6.252;2024-03-02T13:10:12;5.85;;;0.90;;
37431;SDS011;23292;51.300;6.252;2024-03-02T13:12:39;3.72;;;0.75;;
37431;SDS011;23292;51.300;6.252;2024-03-02T13:15:05;3.72;;;0.80;;
37431;SDS011;23292;51.300;6.252;2024-03-02T13:17:35;2.75;;;0.73;;
37431;SDS011;23292;51.300;6.252;2024-03-02T13:22:34;4.13;;;0.80;;
37431;SDS011;23292;51.300;6.252;2024-03-02T13:25:01;3.40;;;0.70;;
37431;SDS011;23292;51.300;6.252;2024-03-02T13:27:31;3.55;;;1.10;;
37431;SDS011;23292;51.300;6.252;2024-03-02T13:29:58;4.30;;;0.60;;
37431;SDS011;23292;51.300;6.252;2024-03-02T13:32:25;6.13;;;0.82;;
37431;SDS011;23292;51.300;6.252;2024-03-02T13:34:52;7.03;;;1.00;;
37431;SDS011;23292;51.300;6.252;2024-03-02T13:37:22;2.60;;;1.10;;
37431;SDS011;23292;51.300;6.252;2024-03-02T13:39:49;7.55;;;0.98;;
37431;SDS011;23292;51.300;6.252;2024-03-02T13:42:16;5.45;;;0.90;;
37431;SDS011;23292;51.300;6.252;2024-03-02T13:44:43;6.93;;;1.00;;
37431;SDS011;23292;51.300;6.252;2024-03-02T13:47:15;5.77;;;0.90;;
37431;SDS011;23292;51.300;6.252;2024-03-02T13:49:41;7.75;;;1.20;;
37431;SDS011;23292;51.300;6.252;2024-03-02T13:52:13;6.60;;;1.58;;
37431;SDS011;23292;51.300;6.252;2024-03-02T13:54:40;11.93;;;1.60;;
37431;SDS011;23292;51.300;6.252;2024-03-02T13:57:09;7.03;;;1.30;;
37431;SDS011;23292;51.300;6.252;2024-03-02T13:59:36;8.38;;;1.52;;
37431;SDS011;23292;51.300;6.252;2024-03-02T14:02:04;6.50;;;1.00;;
37431;SDS011;23292;51.300;6.252;2024-03-02T14:04:32;8.63;;;1.10;;
37431;SDS011;23292;51.300;6.252;2024-03-02T14:07:02;3.42;;;1.10;;
37431;SDS011;23292;51.300;6.252;2024-03-02T14:09:30;5.03;;;1.00;;
37431;SDS011;23292;51.300;6.252;2024-03-02T14:11:57;8.68;;;1.40;;
37431;SDS011;23292;51.300;6.252;2024-03-02T14:14:24;5.88;;;1.10;;
37431;SDS011;23292;51.300;6.252;2024-03-02T14:16:51;13.02;;;1.58;;
37431;SDS011;23292;51.300;6.252;2024-03-02T14:19:19;5.80;;;1.35;;
37431;SDS011;23292;51.300;6.252;2024-03-02T14:21:47;6.03;;;1.13;;
37431;SDS011;23292;51.300;6.252;2024-03-02T14:24:14;6.90;;;1.00;;
37431;SDS011;23292;51.300;6.252;2024-03-02T14:26:41;9.45;;;1.38;;
37431;SDS011;23292;51.300;6.252;2024-03-02T14:29:08;6.05;;;1.13;;
37431;SDS011;23292;51.300;6.252;2024-03-02T14:31:35;4.82;;;0.80;;
37431;SDS011;23292;51.300;6.252;2024-03-02T14:34:02;6.00;;;1.10;;
37431;SDS011;23292;51.300;6.252;2024-03-02T14:36:29;8.43;;;0.93;;
37431;SDS011;23292;51.300;6.252;2024-03-02T14:38:56;3.17;;;0.85;;
37431;SDS011;23292;51.300;6.252;2024-03-02T14:41:23;9.20;;;1.58;;
37431;SDS011;23292;51.300;6.252;2024-03-02T14:43:51;4.38;;;1.00;;
37431;SDS011;23292;51.300;6.252;2024-03-02T14:46:18;8.55;;;1.55;;
37431;SDS011;23292;51.300;6.252;2024-03-02T14:48:46;3.33;;;1.00;;
37431;SDS011;23292;51.300;6.252;2024-03-02T14:51:13;4.20;;;1.13;;
37431;SDS011;23292;51.300;6.252;2024-03-02T14:53:41;4.18;;;0.95;;
37431;SDS011;23292;51.300;6.252;2024-03-02T14:56:08;4.75;;;0.95;;
37431;SDS011;23292;51.300;6.252;2024-03-02T14:58:35;4.18;;;0.90;;
37431;SDS011;23292;51.300;6.252;2024-03-02T15:01:03;2.78;;;1.00;;
37431;SDS011;23292;51.300;6.252;2024-03-02T15:03:35;2.45;;;0.82;;
37431;SDS011;23292;51.300;6.252;2024-03-02T15:06:05;3.63;;;0.93;;